Time;durP1;ratioP1;P1;durP2;ratioP2;P2;SDS_P1;SDS_P2;PMS_P1;PMS_P2;Temp;Humidity;BMP_temperature;BMP_pressure;BME280_temperature;BME280_humidity;BME280_pressure;Samples;Min_cycle;Max_cycle;Signal;HPM_P1;HPM_P2
2023/05/27 00:02:24;;;;;;;19.58;4.60;;;;;;;12.83;100.00;98377.25;5139182;28;20042;-55
2023/05/27 00:04:50;;;;;;;10.23;3.58;;;;;;;12.75;100.00;98380.41;5139144;28;20403;-51
2023/05/27 00:07:16;;;;;;;8.35;3.55;;;;;;;12.65;100.00;98380.03;5139032;27;20042;-51
2023/05/27 00:09:41;;;;;;;9.30;3.97;;;;;;;12.71;100.00;98380.44;5139018;28;20103;-56
2023/05/27 00:12:08;;;;;;;10.20;3.92;;;;;;;12.59;100.00;98387.13;5138827;28;20406;-60
2023/05/27 00:14:34;;;;;;;9.60;4.22;;;;;;;12.48;100.00;98384.41;5138884;28;20080;-56
2023/05/27 00:17:01;;;;;;;10.38;4.22;;;;;;;12.50;100.00;98395.03;5138833;28;20051;-57
2023/05/27 00:19:29;;;;;;;9.45;4.32;;;;;;;12.33;100.00;98410.38;5138839;28;20051;-52
2023/05/27 00:21:55;;;;;;;7.82;3.97;;;;;;;12.52;100.00;98411.13;5138667;28;20066;-55
2023/05/27 00:24:21;;;;;;;12.13;4.32;;;;;;;12.47;100.00;98420.56;5138656;27;20058;-58
2023/05/27 00:26:47;;;;;;;11.20;4.22;;;;;;;12.38;100.00;98417.44;5137868;27;20051;-53
2023/05/27 00:29:15;;;;;;;12.35;4.25;;;;;;;12.43;100.00;98419.78;5138863;28;20058;-59
2023/05/27 00:31:41;;;;;;;12.00;4.00;;;;;;;12.39;100.00;98428.00;5138471;28;20061;-60
2023/05/27 00:34:07;;;;;;;13.23;4.03;;;;;;;12.26;100.00;98437.84;5138535;28;20078;-60
2023/05/27 00:36:33;;;;;;;7.55;4.00;;;;;;;12.28;100.00;98453.94;5138523;27;20051;-59
2023/05/27 00:39:00;;;;;;;10.63;3.95;;;;;;;12.36;100.00;98455.50;5138514;28;20374;-56
2023/05/27 00:41:26;;;;;;;11.80;4.45;;;;;;;12.32;100.00;98457.47;5138291;28;20043;-59
2023/05/27 00:43:53;;;;;;;13.65;4.22;;;;;;;12.37;100.00;98459.84;5138279;28;20656;-57
2023/05/27 00:46:20;;;;;;;16.10;4.18;;;;;;;12.27;100.00;98460.63;5138340;28;20065;-55
2023/05/27 00:48:47;;;;;;;11.93;3.72;;;;;;;12.21;100.00;98471.22;5138259;28;20047;-58
2023/05/27 00:51:13;;;;;;;17.38;5.07;;;;;;;12.16;100.00;98505.38;5138187;28;20405;-60
2023/05/27 00:53:40;;;;;;;12.15;4.05;;;;;;;12.21;100.00;98513.22;5138111;28;20090;-57
2023/05/27 00:56:07;;;;;;;11.70;4.70;;;;;;;12.12;100.00;98506.53;5138006;28;20103;-56
2023/05/27 00:58:34;;;;;;;17.80;4.03;;;;;;;11.98;100.00;98537.53;5138054;28;20047;-54
2023/05/27 01:01:01;;;;;;;7.75;3.80;;;;;;;12.02;100.00;98568.53;5138069;28;20074;-60
2023/05/27 01:03:29;;;;;;;19.83;4.60;;;;;;;12.06;100.00;98580.31;5138179;27;20047;-53
2023/05/27 01:06:04;;;;;;;9.98;4.05;;;;;;;12.08;100.00;98572.47;5137849;27;20474;-56
2023/05/27 01:08:39;;;;;;;17.38;4.30;;;;;;;12.03;100.00;98583.88;5138063;28;20050;-54
2023/05/27 01:11:10;;;;;;;8.52;4.00;;;;;;;11.90;100.00;98635.63;5138216;28;20139;-58
2023/05/27 01:13:41;;;;;;;17.65;4.50;;;;;;;12.02;100.00;98651.72;5137795;28;20047;-54
2023/05/27 01:16:12;;;;;;;11.82;3.95;;;;;;;12.00;100.00;98653.31;5137620;28;20078;-53
2023/05/27 01:18:40;;;;;;;15.68;4.03;;;;;;;11.80;100.00;98688.50;5137679;28;20107;-59
2023/05/27 01:21:10;;;;;;;15.27;4.55;;;;;;;11.85;100.00;98714.84;5137702;28;20058;-61
2023/05/27 01:23:38;;;;;;;10.88;3.72;;;;;;;11.67;100.00;98770.41;5137874;28;20341;-51
2023/05/27 01:26:04;;;;;;;10.15;3.83;;;;;;;11.67;100.00;98814.34;5138020;28;20069;-55
2023/05/27 01:28:30;;;;;;;9.43;4.70;;;;;;;11.57;100.00;98866.44;5137631;28;20424;-60
2023/05/27 01:31:10;;;;;;;11.65;3.72;;;;;;;11.47;100.00;98884.38;5137774;28;20380;-54
2023/05/27 01:33:38;;;;;;;15.27;4.60;;;;;;;11.49;100.00;98997.31;5137591;28;20065;-55
2023/05/27 01:36:08;;;;;;;11.52;4.22;;;;;;;11.35;100.00;98977.97;5137429;27;20079;-59
2023/05/27 01:38:40;;;;;;;18.45;3.97;;;;;;;11.41;100.00;99042.34;5136212;27;20394;-59
2023/05/27 01:41:07;;;;;;;9.75;4.70;;;;;;;11.45;100.00;99084.34;5137367;28;20138;-58
2023/05/27 01:43:34;;;;;;;14.75;4.45;;;;;;;11.44;100.00;99119.25;5137629;28;20051;-53
2023/05/27 01:46:00;;;;;;;8.75;4.57;;;;;;;11.50;100.00;99101.28;5137365;28;20451;-59
2023/05/27 01:48:26;;;;;;;11.95;4.45;;;;;;;11.49;100.00;99131.84;5137323;28;20051;-51
2023/05/27 01:50:52;;;;;;;15.82;4.43;;;;;;;11.40;100.00;99187.03;5137449;28;20147;-56
2023/05/27 01:53:18;;;;;;;7.97;3.88;;;;;;;11.43;100.00;99194.53;5137210;28;20043;-58
2023/05/27 01:55:45;;;;;;;13.73;3.80;;;;;;;11.21;100.00;99262.00;5137261;28;20138;-57
2023/05/27 01:58:11;;;;;;;14.55;4.63;;;;;;;11.22;100.00;99342.38;5137343;28;20079;-59
2023/05/27 02:00:37;;;;;;;8.80;4.10;;;;;;;11.13;100.00;99383.78;5137122;28;20053;-56
2023/05/27 02:03:03;;;;;;;10.68;4.70;;;;;;;11.31;100.00;99403.31;5137211;28;20051;-51
2023/05/27 02:05:29;;;;;;;13.90;3.92;;;;;;;11.35;100.00;99389.66;5137139;27;20070;-53
2023/05/27 02:07:55;;;;;;;9.05;3.67;;;;;;;11.22;100.00;99402.75;5137021;28;20491;-57
2023/05/27 02:10:21;;;;;;;9.40;4.78;;;;;;;11.26;100.00;99401.69;5137065;28;20054;-58
2023/05/27 02:12:48;;;;;;;9.35;3.45;;;;;;;11.28;100.00;99413.06;5137243;28;20061;-53
2023/05/27 02:15:14;;;;;;;11.18;4.47;;;;;;;11.08;100.00;99491.84;5137479;28;20051;-55
2023/05/27 02:17:39;;;;;;;9.90;4.40;;;;;;;11.21;100.00;99516.44;5137134;28;20142;-52
2023/05/27 02:20:06;;;;;;;14.10;4.45;;;;;;;11.33;100.00;99466.88;5137138;28;20047;-53
2023/05/27 02:22:32;;;;;;;23.38;4.53;;;;;;;11.21;100.00;99483.50;5137302;28;20138;-58
2023/05/27 02:24:58;;;;;;;9.27;4.00;;;;;;;11.03;100.00;99525.09;5136983;28;20440;-58
2023/05/27 02:27:24;;;;;;;7.32;4.15;;;;;;;10.99;100.00;99559.84;5136934;28;20055;-59
2023/05/27 02:29:51;;;;;;;10.30;3.72;;;;;;;11.19;100.00;99549.69;5136887;28;20130;-58
2023/05/27 02:32:16;;;;;;;9.38;4.35;;;;;;;11.30;100.00;99533.47;5136859;28;20385;-59
2023/05/27 02:34:43;;;;;;;11.85;3.78;;;;;;;11.19;100.00;99525.00;5136931;28;20047;-59
2023/05/27 02:37:09;;;;;;;13.88;4.63;;;;;;;11.58;100.00;99496.75;5136651;27;20046;-54
2023/05/27 02:39:35;;;;;;;8.02;3.45;;;;;;;11.81;100.00;99415.19;5136630;28;20341;-50
2023/05/27 02:42:02;;;;;;;15.45;4.03;;;;;;;12.00;100.00;99302.50;5136954;28;20043;-53
2023/05/27 02:44:28;;;;;;;9.95;3.50;;;;;;;12.20;100.00;99184.97;5136589;28;20047;-57
2023/05/27 02:46:55;;;;;;;10.98;3.90;;;;;;;12.43;100.00;99082.31;5136788;28;20058;-59
2023/05/27 02:49:20;;;;;;;8.07;3.45;;;;;;;12.63;100.00;98992.13;5136792;27;20141;-57
2023/05/27 02:51:46;;;;;;;9.20;4.15;;;;;;;12.45;100.00;98940.53;5140216;28;20043;-59
2023/05/27 02:54:12;;;;;;;10.15;4.25;;;;;;;12.73;100.00;98848.38;5140048;28;20051;-59
2023/05/27 02:56:38;;;;;;;9.93;3.45;;;;;;;12.98;100.00;98760.41;5140038;28;20176;-59
2023/05/27 02:59:04;;;;;;;6.43;3.47;;;;;;;12.85;100.00;98677.47;5140109;28;20115;-55
2023/05/27 03:01:30;;;;;;;5.78;3.83;;;;;;;12.92;100.00;98680.22;5140229;28;20142;-54
2023/05/27 03:03:57;;;;;;;9.25;3.53;;;;;;;12.99;100.00;98620.88;5140010;28;20169;-57
2023/05/27 03:06:23;;;;;;;10.18;3.75;;;;;;;13.38;100.00;98594.09;5139778;27;20416;-55
2023/05/27 03:08:49;;;;;;;15.88;3.72;;;;;;;12.98;100.00;98603.56;5139843;28;20089;-57
2023/05/27 03:11:14;;;;;;;13.25;3.17;;;;;;;13.10;100.00;98580.38;5139786;28;20134;-57
2023/05/27 03:13:40;;;;;;;8.98;3.83;;;;;;;13.19;100.00;98587.06;5139876;28;20298;-59
2023/05/27 03:16:07;;;;;;;5.68;2.95;;;;;;;13.73;100.00;98531.81;5139632;28;20412;-57
2023/05/27 03:18:32;;;;;;;7.45;2.80;;;;;;;13.71;100.00;98486.56;5139893;28;20054;-51
2023/05/27 03:20:59;;;;;;;6.85;3.05;;;;;;;13.33;100.00;98495.41;5139611;28;20074;-55
2023/05/27 03:23:25;;;;;;;11.02;2.92;;;;;;;13.84;100.00;98493.97;5139680;28;20055;-54
2023/05/27 03:25:51;;;;;;;7.15;3.00;;;;;;;13.51;100.00;98481.56;5139668;28;20055;-56
2023/05/27 03:28:17;;;;;;;7.35;3.17;;;;;;;14.03;100.00;98481.66;5139613;28;20074;-56
2023/05/27 03:30:43;;;;;;;8.18;2.97;;;;;;;14.01;100.00;98488.75;5139540;28;20114;-59
2023/05/27 03:33:09;;;;;;;10.10;2.83;;;;;;;14.39;100.00;98492.38;5139511;28;20385;-50
2023/05/27 03:35:35;;;;;;;6.05;2.78;;;;;;;14.63;100.00;98501.69;5139232;27;20053;-56
2023/05/27 03:38:02;;;;;;;10.13;2.90;;;;;;;14.88;100.00;98533.75;5139566;28;20050;-54
2023/05/27 03:40:28;;;;;;;7.18;3.45;;;;;;;14.66;100.00;98535.94;5139600;28;20047;-56
2023/05/27 03:42:54;;;;;;;10.68;3.00;;;;;;;14.47;100.00;98543.53;5139513;28;20138;-56
2023/05/27 03:45:20;;;;;;;7.05;2.67;;;;;;;14.36;100.00;98570.41;5139495;27;20150;-53
2023/05/27 03:47:46;;;;;;;11.05;2.70;;;;;;;14.50;100.00;98583.31;5139192;28;20100;-54
2023/05/27 03:50:11;;;;;;;6.13;2.72;;;;;;;14.78;100.00;98598.91;5139180;28;20188;-55
2023/05/27 03:52:37;;;;;;;8.95;2.83;;;;;;;14.69;100.00;98588.31;5139297;28;20094;-55
2023/05/27 03:55:05;;;;;;;14.40;2.88;;;;;;;15.12;100.00;98636.84;5139257;28;20074;-58
2023/05/27 03:57:31;;;;;;;13.65;2.90;;;;;;;14.91;100.00;98685.53;5139148;28;20043;-59
2023/05/27 03:59:57;;;;;;;6.93;2.15;;;;;;;15.07;100.00;98658.19;5139124;27;20089;-58
2023/05/27 04:02:23;;;;;;;4.45;1.80;;;;;;;15.04;100.00;98678.31;5137952;27;20078;-55
2023/05/27 04:04:48;;;;;;;9.63;1.98;;;;;;;14.98;100.00;98729.63;5138944;28;20420;-52
2023/05/27 04:07:15;;;;;;;6.10;2.22;;;;;;;15.15;100.00;98727.16;5138836;27;20066;-52
2023/05/27 04:09:41;;;;;;;4.20;1.85;;;;;;;15.52;100.00;98810.09;5138800;28;20057;-56
2023/05/27 04:12:08;;;;;;;6.47;2.00;;;;;;;16.02;100.00;98872.50;5139049;28;20074;-57
2023/05/27 04:14:35;;;;;;;5.25;2.47;;;;;;;16.47;100.00;98928.59;5138795;28;20158;-51
2023/05/27 04:17:01;;;;;;;9.85;2.67;;;;;;;16.35;100.00;98958.75;5138994;28;20047;-55
2023/05/27 04:19:27;;;;;;;3.67;2.28;;;;;;;16.55;100.00;99008.78;5138689;28;20141;-55
2023/05/27 04:21:53;;;;;;;3.45;1.83;;;;;;;16.89;100.00;99015.22;5138809;28;20047;-57
2023/05/27 04:24:19;;;;;;;5.20;1.90;;;;;;;16.82;100.00;98989.56;5138783;28;20043;-60
2023/05/27 04:26:45;;;;;;;6.53;2.17;;;;;;;16.86;100.00;99063.09;5138679;28;20138;-58
2023/05/27 04:29:12;;;;;;;5.18;1.75;;;;;;;17.17;100.00;99069.50;5138653;28;20047;-57
2023/05/27 04:31:38;;;;;;;5.78;2.38;;;;;;;17.60;100.00;99098.75;5138710;28;20435;-55
2023/05/27 04:34:04;;;;;;;15.52;2.97;;;;;;;17.75;100.00;99125.09;5138508;28;20118;-59
2023/05/27 04:36:33;;;;;;;6.63;1.60;;;;;;;17.64;100.00;99124.44;5138260;27;20138;-60
2023/05/27 04:39:00;;;;;;;5.28;1.75;;;;;;;18.41;100.00;99156.38;5138395;28;20370;-60
2023/05/27 04:41:28;;;;;;;6.40;1.80;;;;;;;17.57;100.00;99149.47;5138504;28;20062;-56
2023/05/27 04:43:54;;;;;;;7.00;2.33;;;;;;;17.93;100.00;99162.97;5138216;28;20043;-60
2023/05/27 04:46:21;;;;;;;12.98;1.95;;;;;;;18.07;100.00;99184.97;5138193;28;20058;-54
2023/05/27 04:48:47;;;;;;;8.95;2.50;;;;;;;16.89;100.00;99137.03;5138264;28;20051;-58
2023/05/27 04:51:15;;;;;;;2.67;1.60;;;;;;;17.89;100.00;99162.97;5138239;28;20047;-56
2023/05/27 04:53:41;;;;;;;7.13;1.92;;;;;;;17.88;100.00;99173.28;5138196;28;20050;-55
2023/05/27 04:56:08;;;;;;;5.50;2.15;;;;;;;17.05;100.00;99158.66;5137827;28;20057;-59
2023/05/27 04:58:34;;;;;;;3.72;1.70;;;;;;;17.91;100.00;99182.78;5138336;27;20058;-53
2023/05/27 05:01:01;;;;;;;13.57;2.53;;;;;;;17.93;100.00;99188.69;5138173;28;20137;-52
2023/05/27 05:03:36;;;;;;;3.15;1.80;;;;;;;18.00;100.00;99199.72;5138001;28;20384;-59
2023/05/27 05:06:03;;;;;;;11.52;1.80;;;;;;;17.25;100.00;99210.72;5138117;27;20340;-57
2023/05/27 05:08:29;;;;;;;4.43;2.10;;;;;;;17.80;100.00;99184.91;5138113;28;20043;-57
2023/05/27 05:10:55;;;;;;;9.52;2.88;;;;;;;18.00;100.00;99196.16;5138324;28;20130;-55
2023/05/27 05:13:21;;;;;;;4.32;1.73;;;;;;;18.73;100.00;99219.81;5137528;27;20087;-51
2023/05/27 05:15:47;;;;;;;15.07;3.28;;;;;;;17.56;100.00;99204.13;5137812;28;20057;-53
2023/05/27 05:18:13;;;;;;;12.18;2.85;;;;;;;18.54;100.00;99213.69;5138092;28;20134;-61
2023/05/27 05:20:40;;;;;;;4.55;1.63;;;;;;;19.23;100.00;99239.28;5137985;28;20054;-55
2023/05/27 05:25:58;;;;;;;5.20;1.63;;;;;;;18.98;100.00;99259.13;5137768;28;20108;-55
2023/05/27 05:28:23;;;;;;;5.47;1.77;;;;;;;19.03;100.00;99252.31;5137545;28;20094;-61
2023/05/27 05:30:49;;;;;;;7.75;2.67;;;;;;;19.31;100.00;99272.53;5137858;28;20051;-60
2023/05/27 05:33:15;;;;;;;4.63;1.70;;;;;;;19.57;98.57;99282.81;5137503;28;20290;-53
2023/05/27 05:35:42;;;;;;;7.57;1.65;;;;;;;19.65;100.00;99283.50;5137674;27;20051;-52
2023/05/27 05:38:08;;;;;;;4.05;1.58;;;;;;;19.79;93.20;99304.72;5137498;28;20417;-54
2023/05/27 05:40:34;;;;;;;10.63;1.75;;;;;;;19.81;92.03;99294.75;5137902;28;20053;-54
2023/05/27 05:43:00;;;;;;;7.55;1.60;;;;;;;20.10;92.51;99303.38;5137529;28;20046;-51
2023/05/27 05:45:25;;;;;;;2.83;1.83;;;;;;;19.97;90.77;99319.13;5137505;28;20077;-52
2023/05/27 05:47:53;;;;;;;4.07;1.80;;;;;;;20.36;90.39;99314.81;5137149;27;20051;-55
2023/05/27 05:50:19;;;;;;;3.92;1.67;;;;;;;20.62;86.33;99313.91;5137397;28;20070;-52
2023/05/27 05:52:45;;;;;;;10.57;1.70;;;;;;;20.02;88.96;99321.41;5137264;28;20487;-53
2023/05/27 05:55:11;;;;;;;5.22;2.47;;;;;;;20.98;84.87;99326.31;5137370;27;20047;-52
2023/05/27 05:57:37;;;;;;;5.10;1.33;;;;;;;21.19;82.37;99339.75;5137227;28;20153;-53
2023/05/27 06:00:05;;;;;;;4.28;1.50;;;;;;;20.24;82.04;99338.50;5137485;28;20080;-59
2023/05/27 06:02:31;;;;;;;7.82;1.70;;;;;;;19.62;87.43;99337.16;5137139;28;20404;-60
2023/05/27 06:04:56;;;;;;;5.78;1.60;;;;;;;20.32;85.03;99334.34;5137047;28;20061;-60
2023/05/27 06:07:22;;;;;;;6.03;2.13;;;;;;;21.25;78.79;99353.97;5137242;27;20078;-58
2023/05/27 06:09:49;;;;;;;5.30;1.48;;;;;;;21.29;74.79;99361.06;5137043;28;20332;-56
2023/05/27 06:12:15;;;;;;;3.80;1.55;;;;;;;21.58;75.20;99355.59;5137029;28;20048;-60
2023/05/27 06:14:41;;;;;;;8.23;2.10;;;;;;;21.64;74.21;99361.47;5136944;28;20090;-55
2023/05/27 06:17:07;;;;;;;7.38;1.45;;;;;;;21.17;75.16;99361.72;5136934;28;20138;-55
2023/05/27 06:19:32;;;;;;;4.72;2.03;;;;;;;21.76;74.58;99357.19;5136938;28;20503;-52
2023/05/27 06:21:58;;;;;;;11.05;1.58;;;;;;;22.01;71.73;99367.72;5136893;28;20146;-53
2023/05/27 06:24:24;;;;;;;4.40;1.42;;;;;;;21.61;72.64;99365.13;5137053;27;20147;-55
2023/05/27 06:26:51;;;;;;;3.13;1.30;;;;;;;21.35;73.08;99378.06;5140454;28;20413;-57
2023/05/27 06:29:18;;;;;;;3.03;1.35;;;;;;;21.40;72.55;99379.59;5140329;28;20401;-56
2023/05/27 06:31:44;;;;;;;4.05;1.58;;;;;;;21.51;72.69;99380.09;5140640;28;20059;-59
2023/05/27 06:34:10;;;;;;;5.65;1.30;;;;;;;21.37;72.44;99365.28;5140578;28;20043;-60
2023/05/27 06:36:36;;;;;;;13.57;1.80;;;;;;;20.76;74.54;99367.75;5140392;27;20404;-57
2023/05/27 06:39:03;;;;;;;5.38;1.35;;;;;;;21.02;73.70;99366.81;5140476;28;20083;-55
2023/05/27 06:41:28;;;;;;;4.70;1.77;;;;;;;21.04;73.20;99366.38;5140220;28;20340;-59
2023/05/27 06:43:55;;;;;;;6.10;1.42;;;;;;;21.21;73.35;99372.78;5140225;28;20083;-59
2023/05/27 06:46:21;;;;;;;4.75;1.20;;;;;;;21.22;73.06;99375.13;5140232;27;20141;-55
2023/05/27 06:48:47;;;;;;;8.98;1.60;;;;;;;20.63;74.36;99374.00;5140167;28;20057;-57
2023/05/27 06:51:14;;;;;;;10.95;1.55;;;;;;;21.53;72.46;99377.69;5140156;28;20104;-61
2023/05/27 06:53:40;;;;;;;5.85;1.30;;;;;;;21.92;70.39;99382.28;5139957;28;20057;-59
2023/05/27 06:56:06;;;;;;;5.90;1.45;;;;;;;22.53;68.28;99381.53;5139943;28;20051;-59
2023/05/27 06:58:32;;;;;;;12.07;1.98;;;;;;;22.46;69.00;99381.75;5140021;28;20043;-53
2023/05/27 07:00:59;;;;;;;9.60;1.50;;;;;;;22.05;70.03;99379.59;5140048;28;20077;-52
2023/05/27 07:03:25;;;;;;;5.95;1.65;;;;;;;22.52;68.64;99393.91;5139971;27;20050;-54
2023/05/27 07:05:51;;;;;;;10.27;2.20;;;;;;;23.15;65.50;99386.19;5139619;27;20047;-60
2023/05/27 07:08:17;;;;;;;7.43;1.85;;;;;;;23.33;64.74;99394.06;5139717;28;20104;-57
2023/05/27 07:10:44;;;;;;;11.00;2.38;;;;;;;22.82;66.18;99391.91;5139583;28;20044;-54
2023/05/27 07:13:14;;;;;;;7.03;1.90;;;;;;;22.94;65.48;99393.22;5139760;28;20051;-54
2023/05/27 07:15:39;;;;;;;6.03;2.13;;;;;;;23.39;64.77;99395.88;5139879;28;20051;-53
2023/05/27 07:18:06;;;;;;;2.65;1.48;;;;;;;23.33;64.49;99394.84;5139519;28;20058;-52
2023/05/27 07:20:34;;;;;;;8.60;1.80;;;;;;;24.15;63.31;99392.22;5139565;28;20094;-54
2023/05/27 07:23:00;;;;;;;7.07;1.75;;;;;;;23.16;64.62;99401.78;5139476;28;20051;-59
2023/05/27 07:25:26;;;;;;;8.65;1.98;;;;;;;23.53;63.99;99403.03;5139314;27;20232;-56
2023/05/27 07:27:54;;;;;;;7.70;1.90;;;;;;;23.97;63.26;99410.88;5139236;28;20047;-51
2023/05/27 07:30:20;;;;;;;76.78;4.95;;;;;;;22.54;64.62;99404.69;5139560;28;20302;-56
2023/05/27 07:32:46;;;;;;;30.02;3.33;;;;;;;22.39;66.31;99415.47;5139471;28;20112;-55
2023/05/27 07:35:13;;;;;;;8.60;1.35;;;;;;;22.10;69.33;99409.78;5139353;27;20166;-57
2023/05/27 07:37:39;;;;;;;10.05;2.05;;;;;;;22.99;66.58;99418.63;5139326;28;20137;-55
2023/05/27 07:40:06;;;;;;;6.28;2.38;;;;;;;22.98;65.80;99414.25;5139282;28;20105;-57
2023/05/27 07:42:32;;;;;;;5.25;1.17;;;;;;;22.11;67.96;99400.19;5139330;28;20413;-54
2023/05/27 07:45:00;;;;;;;4.22;1.77;;;;;;;22.02;67.63;99406.38;5139335;28;20066;-55
2023/05/27 07:47:26;;;;;;;19.35;2.38;;;;;;;22.08;68.82;99410.19;5139158;28;20114;-55
2023/05/27 07:49:51;;;;;;;3.92;1.60;;;;;;;21.34;71.13;99409.94;5139124;28;20059;-53
2023/05/27 07:52:18;;;;;;;4.35;1.38;;;;;;;21.88;68.39;99398.34;5139072;28;20054;-51
2023/05/27 07:54:44;;;;;;;4.25;1.30;;;;;;;21.92;68.91;99403.84;5139014;28;20043;-54
2023/05/27 07:57:10;;;;;;;8.07;1.75;;;;;;;22.84;65.62;99411.03;5138958;28;20385;-52
2023/05/27 07:59:36;;;;;;;81.57;5.78;;;;;;;20.89;69.35;99402.94;5139165;28;20094;-56
2023/05/27 08:02:02;;;;;;;4.25;1.45;;;;;;;21.75;67.53;99397.47;5138863;28;20058;-55
2023/05/27 08:04:28;;;;;;;6.35;1.60;;;;;;;22.33;66.59;99402.47;5138920;28;20051;-59
2023/05/27 08:06:53;;;;;;;8.90;2.00;;;;;;;22.06;65.56;99409.09;5138911;27;20107;-59
2023/05/27 08:09:20;;;;;;;10.48;1.40;;;;;;;22.72;63.00;99410.53;5138734;28;20066;-60
2023/05/27 08:11:46;;;;;;;6.00;1.10;;;;;;;22.67;62.19;99419.47;5139105;27;20062;-59
2023/05/27 08:14:12;;;;;;;12.18;1.60;;;;;;;22.94;62.26;99415.56;5139158;28;20051;-59
2023/05/27 08:16:38;;;;;;;15.38;2.03;;;;;;;22.97;62.44;99420.28;5138662;28;20047;-58
2023/05/27 08:19:04;;;;;;;1.95;1.00;;;;;;;22.41;62.55;99426.19;5138769;28;20203;-60
2023/05/27 08:21:31;;;;;;;11.38;1.90;;;;;;;23.24;60.93;99423.47;5138520;28;20047;-58
2023/05/27 08:23:57;;;;;;;13.90;1.60;;;;;;;23.01;58.18;99427.34;5138545;28;20189;-55
2023/05/27 08:26:23;;;;;;;9.30;1.90;;;;;;;23.26;58.39;99431.44;5138506;28;20065;-59
2023/05/27 08:28:49;;;;;;;4.93;1.23;;;;;;;22.74;58.98;99435.28;5138757;28;20047;-60
2023/05/27 08:31:15;;;;;;;19.90;2.08;;;;;;;21.42;58.87;99439.25;5138646;28;20082;-57
2023/05/27 08:33:41;;;;;;;13.45;1.63;;;;;;;22.53;58.53;99436.63;5138493;28;20086;-56
2023/05/27 08:36:07;;;;;;;4.97;1.17;;;;;;;22.38;58.57;99427.84;5138691;27;20055;-55
2023/05/27 08:38:33;;;;;;;1.90;1.20;;;;;;;23.02;56.95;99434.50;5138458;28;20047;-58
2023/05/27 08:40:59;;;;;;;9.30;1.77;;;;;;;22.61;56.44;99437.22;5138340;28;20127;-60
2023/05/27 08:43:26;;;;;;;6.43;1.45;;;;;;;22.51;57.62;99439.06;5138141;28;20138;-56
2023/05/27 08:45:52;;;;;;;8.48;1.55;;;;;;;22.95;56.54;99436.72;5138235;28;20054;-53
2023/05/27 08:48:18;;;;;;;6.03;1.95;;;;;;;22.69;56.28;99444.19;5137628;27;20408;-51
2023/05/27 08:50:44;;;;;;;7.50;1.30;;;;;;;22.15;56.80;99442.78;5138384;28;20392;-60
2023/05/27 08:53:11;;;;;;;1.73;1.20;;;;;;;21.78;57.65;99444.81;5138117;28;20086;-54
2023/05/27 08:55:40;;;;;;;3.10;1.00;;;;;;;21.05;58.14;99443.22;5138180;27;20051;-54
2023/05/27 08:58:06;;;;;;;2.15;1.05;;;;;;;21.59;57.53;99452.06;5137994;28;20409;-60
2023/05/27 09:00:33;;;;;;;9.50;1.42;;;;;;;20.86;58.17;99439.22;5138091;27;20054;-55
2023/05/27 09:02:59;;;;;;;7.78;1.13;;;;;;;21.84;56.90;99453.47;5138115;28;20055;-60
2023/05/27 09:05:26;;;;;;;2.05;0.88;;;;;;;22.73;55.95;99458.88;5137878;27;20101;-56
2023/05/27 09:07:52;;;;;;;4.40;1.50;;;;;;;21.00;57.76;99457.66;5137895;28;20130;-59
2023/05/27 09:10:18;;;;;;;4.85;1.30;;;;;;;21.60;56.56;99456.41;5137949;28;20078;-56
2023/05/27 09:12:45;;;;;;;8.35;1.25;;;;;;;20.97;56.08;99441.78;5137887;28;20134;-51
2023/05/27 09:15:12;;;;;;;1.60;1.38;;;;;;;21.49;56.48;99449.47;5137618;28;20147;-54
2023/05/27 09:17:41;;;;;;;5.13;1.15;;;;;;;21.55;56.51;99451.31;5137752;28;20050;-51
2023/05/27 09:20:08;;;;;;;4.82;1.10;;;;;;;22.16;55.25;99454.72;5137683;28;20059;-60
2023/05/27 09:22:34;;;;;;;10.48;1.95;;;;;;;21.83;55.54;99455.47;5137635;28;20051;-54
2023/05/27 09:25:00;;;;;;;14.80;1.95;;;;;;;22.15;55.37;99450.34;5137934;28;20305;-58
2023/05/27 09:27:27;;;;;;;10.38;1.20;;;;;;;22.70;54.60;99456.94;5137840;28;20130;-56
2023/05/27 09:29:53;;;;;;;9.55;1.15;;;;;;;23.51;53.26;99447.44;5137843;28;20180;-58
2023/05/27 09:32:26;;;;;;;2.70;1.10;;;;;;;23.10;52.32;99451.09;5137756;28;20055;-60
2023/05/27 09:34:53;;;;;;;2.92;1.33;;;;;;;23.18;51.52;99446.84;5137718;28;20396;-58
2023/05/27 09:37:20;;;;;;;25.70;1.52;;;;;;;22.63;51.26;99451.56;5137703;27;20054;-55
2023/05/27 09:39:48;;;;;;;10.52;1.80;;;;;;;22.33;51.79;99463.91;5137576;28;20070;-55
2023/05/27 09:42:14;;;;;;;8.35;1.40;;;;;;;23.11;50.77;99456.22;5137536;28;20082;-58
2023/05/27 09:44:40;;;;;;;13.02;1.83;;;;;;;23.59;50.25;99460.00;5137415;28;20137;-60
2023/05/27 09:47:08;;;;;;;11.10;1.67;;;;;;;24.06;49.51;99462.16;5137391;28;20047;-54
2023/05/27 09:49:37;;;;;;;4.90;1.85;;;;;;;24.30;49.11;99462.56;5137314;28;20047;-59
2023/05/27 09:52:07;;;;;;;9.85;1.75;;;;;;;23.41;49.43;99460.53;5137308;28;20324;-54
2023/05/27 09:54:33;;;;;;;5.45;1.35;;;;;;;23.58;48.94;99466.81;5137489;28;20050;-56
2023/05/27 09:56:59;;;;;;;6.05;1.50;;;;;;;23.62;49.05;99466.72;5137351;28;20104;-59
2023/05/27 09:59:26;;;;;;;8.70;2.00;;;;;;;23.63;48.88;99455.09;5136108;27;20047;-56
2023/05/27 10:01:53;;;;;;;9.40;1.70;;;;;;;23.00;48.79;99464.91;5137299;28;20058;-56
2023/05/27 10:04:20;;;;;;;3.30;1.20;;;;;;;22.43;49.21;99462.84;5137114;28;20192;-54
2023/05/27 10:06:46;;;;;;;8.55;1.75;;;;;;;22.24;49.99;99450.56;5137120;27;20051;-56
2023/05/27 10:09:13;;;;;;;19.20;2.25;;;;;;;22.54;50.69;99466.91;5137111;28;20138;-52
2023/05/27 10:11:41;;;;;;;5.35;1.92;;;;;;;22.30;50.20;99469.13;5137070;28;20313;-52
2023/05/27 10:14:07;;;;;;;10.35;1.17;;;;;;;22.83;49.41;99460.59;5136828;28;20146;-53
2023/05/27 10:16:35;;;;;;;18.77;1.95;;;;;;;22.50;48.86;99469.03;5136864;28;20152;-56
2023/05/27 10:19:01;;;;;;;16.27;1.15;;;;;;;21.84;49.35;99470.22;5137166;28;20047;-59
2023/05/27 10:21:28;;;;;;;11.20;1.63;;;;;;;22.05;48.81;99464.13;5137350;28;20146;-55
2023/05/27 10:23:57;;;;;;;3.33;1.45;;;;;;;22.23;49.54;99463.72;5136803;28;20043;-58
2023/05/27 10:26:33;;;;;;;15.30;1.70;;;;;;;21.95;49.15;99475.53;5137016;28;20055;-60
2023/05/27 10:29:06;;;;;;;20.20;1.70;;;;;;;21.90;48.67;99471.28;5136977;28;20074;-57
2023/05/27 10:31:32;;;;;;;5.47;1.33;;;;;;;22.58;47.98;99472.41;5137218;28;20059;-52
2023/05/27 10:33:58;;;;;;;4.90;1.30;;;;;;;22.22;48.93;99464.94;5136753;28;20051;-55
2023/05/27 10:36:28;;;;;;;3.67;1.30;;;;;;;22.14;49.77;99471.91;5136528;27;20185;-59
2023/05/27 10:38:56;;;;;;;5.60;1.45;;;;;;;21.28;49.91;99459.06;5136821;28;20055;-53
2023/05/27 10:41:22;;;;;;;8.02;1.38;;;;;;;21.77;50.28;99464.81;5136422;28;20516;-59
2023/05/27 10:43:56;;;;;;;6.07;1.02;;;;;;;21.56;50.77;99466.88;5136582;28;20055;-51
2023/05/27 10:46:22;;;;;;;2.92;0.85;;;;;;;22.35;49.64;99476.19;5136750;28;20141;-58
2023/05/27 10:48:48;;;;;;;13.15;1.90;;;;;;;20.64;50.79;99447.97;5136566;28;20043;-60
2023/05/27 10:51:14;;;;;;;4.70;1.02;;;;;;;20.13;51.43;99458.38;5136677;28;20421;-58
2023/05/27 10:53:40;;;;;;;5.32;1.10;;;;;;;20.03;51.77;99455.78;5136606;28;20085;-51
2023/05/27 10:56:08;;;;;;;6.45;1.30;;;;;;;19.86;51.31;99454.81;5136568;28;20050;-58
2023/05/27 10:58:35;;;;;;;1.80;0.90;;;;;;;19.87;52.27;99459.19;5136555;28;20047;-52
2023/05/27 11:01:09;;;;;;;2.45;0.85;;;;;;;19.13;54.12;99443.09;5136416;28;20043;-54
2023/05/27 11:03:35;;;;;;;0.95;0.90;;;;;;;19.46;54.21;99449.81;5136543;28;20059;-59
2023/05/27 11:06:03;;;;;;;1.85;0.82;;;;;;;20.08;54.13;99458.84;5136312;27;20310;-59
2023/05/27 11:08:29;;;;;;;3.47;1.17;;;;;;;19.91;52.93;99443.22;5136493;28;20176;-58
2023/05/27 11:11:00;;;;;;;1.00;0.80;;;;;;;19.00;53.02;99459.53;5137394;27;20111;-57
2023/05/27 11:13:33;;;;;;;9.63;1.17;;;;;;;19.11;54.01;99464.94;5139778;28;20503;-55
2023/05/27 11:16:00;;;;;;;4.60;1.20;;;;;;;18.91;53.52;99462.00;5139757;28;20061;-54
2023/05/27 11:18:37;;;;;;;1.52;0.80;;;;;;;18.78;52.52;99469.28;5139554;28;20051;-52
2023/05/27 11:21:04;;;;;;;5.70;1.00;;;;;;;18.76;52.49;99453.06;5139836;28;20074;-51
2023/05/27 11:23:37;;;;;;;8.85;1.60;;;;;;;18.99;52.54;99457.97;5139689;28;20417;-58
2023/05/27 11:26:03;;;;;;;2.97;0.80;;;;;;;19.03;52.31;99458.69;5139558;28;20115;-55
2023/05/27 11:28:29;;;;;;;10.38;1.80;;;;;;;19.21;52.53;99460.47;5139587;27;20590;-56